sensor_id;sensor_type;location;lat;lon;timestamp;temperature;humidity
29007;DHT22;16104;48.642;9.008;2023-05-10T01:04:57;16.30;68.20
29007;DHT22;16104;48.642;9.008;2023-05-10T01:09:53;16.20;69.20
29007;DHT22;16104;48.642;9.008;2023-05-10T01:14:49;16.20;68.40
29007;DHT22;16104;48.642;9.008;2023-05-10T02:00:27;15.90;68.30
29007;DHT22;16104;48.642;9.008;2023-05-10T02:05:24;15.90;68.40
29007;DHT22;16104;48.642;9.008;2023-05-10T02:10:20;15.80;68.20
29007;DHT22;16104;48.642;9.008;2023-05-10T02:15:19;15.80;68.50
29007;DHT22;16104;48.642;9.008;2023-05-10T03:01:00;15.60;68.60
29007;DHT22;16104;48.642;9.008;2023-05-10T03:05:55;15.60;68.70
29007;DHT22;16104;48.642;9.008;2023-05-10T03:16:08;15.60;69.20
29007;DHT22;16104;48.642;9.008;2023-05-10T03:21:07;15.50;69.10
29007;DHT22;16104;48.642;9.008;2023-05-10T03:26:04;15.50;69.30
29007;DHT22;16104;48.642;9.008;2023-05-10T03:31:02;15.50;69.30
29007;DHT22;16104;48.642;9.008;2023-05-10T03:35:58;15.50;69.30
29007;DHT22;16104;48.642;9.008;2023-05-10T03:40:54;15.40;69.30
29007;DHT22;16104;48.642;9.008;2023-05-10T03:45:49;15.40;69.30
29007;DHT22;16104;48.642;9.008;2023-05-10T03:50:45;15.30;69.40
29007;DHT22;16104;48.642;9.008;2023-05-10T03:55:41;15.30;69.60
29007;DHT22;16104;48.642;9.008;2023-05-10T04:00:36;15.30;69.70
29007;DHT22;16104;48.642;9.008;2023-05-10T04:05:32;15.30;69.80
29007;DHT22;16104;48.642;9.008;2023-05-10T04:10:27;15.20;70.00
29007;DHT22;16104;48.642;9.008;2023-05-10T04:15:23;15.30;70.10
29007;DHT22;16104;48.642;9.008;2023-05-10T04:20:18;15.20;70.30
29007;DHT22;16104;48.642;9.008;2023-05-10T04:25:14;15.20;70.40
29007;DHT22;16104;48.642;9.008;2023-05-10T04:30:10;15.20;70.50
29007;DHT22;16104;48.642;9.008;2023-05-10T04:35:06;15.20;70.50
29007;DHT22;16104;48.642;9.008;2023-05-10T04:40:01;15.20;70.60
29007;DHT22;16104;48.642;9.008;2023-05-10T04:44:58;15.30;70.70
29007;DHT22;16104;48.642;9.008;2023-05-10T04:49:53;15.30;70.60
29007;DHT22;16104;48.642;9.008;2023-05-10T04:54:49;15.30;70.80
29007;DHT22;16104;48.642;9.008;2023-05-10T04:59:44;15.30;70.70
29007;DHT22;16104;48.642;9.008;2023-05-10T05:04:40;15.30;70.60
29007;DHT22;16104;48.642;9.008;2023-05-10T05:09:36;15.40;70.70
29007;DHT22;16104;48.642;9.008;2023-05-10T05:14:31;15.40;70.70
29007;DHT22;16104;48.642;9.008;2023-05-10T05:19:27;15.40;70.60
29007;DHT22;16104;48.642;9.008;2023-05-10T05:24:22;15.50;70.60
29007;DHT22;16104;48.642;9.008;2023-05-10T05:29:18;15.50;70.50
29007;DHT22;16104;48.642;9.008;2023-05-10T05:34:13;15.50;70.50
29007;DHT22;16104;48.642;9.008;2023-05-10T05:39:09;15.40;70.40
29007;DHT22;16104;48.642;9.008;2023-05-10T05:44:04;15.50;70.60
29007;DHT22;16104;48.642;9.008;2023-05-10T05:49:00;15.50;70.60
29007;DHT22;16104;48.642;9.008;2023-05-10T05:53:55;15.60;70.70
29007;DHT22;16104;48.642;9.008;2023-05-10T05:58:51;15.60;70.70
29007;DHT22;16104;48.642;9.008;2023-05-10T06:03:46;15.60;70.70
29007;DHT22;16104;48.642;9.008;2023-05-10T06:08:42;15.60;70.50
29007;DHT22;16104;48.642;9.008;2023-05-10T06:13:37;15.70;71.30
29007;DHT22;16104;48.642;9.008;2023-05-10T06:18:33;15.70;70.40
29007;DHT22;16104;48.642;9.008;2023-05-10T06:23:29;15.80;70.70
29007;DHT22;16104;48.642;9.008;2023-05-10T06:28:24;15.80;70.40
29007;DHT22;16104;48.642;9.008;2023-05-10T06:33:20;15.90;70.20
29007;DHT22;16104;48.642;9.008;2023-05-10T06:38:15;15.90;70.20
29007;DHT22;16104;48.642;9.008;2023-05-10T06:43:11;16.00;70.40
29007;DHT22;16104;48.642;9.008;2023-05-10T06:48:07;16.10;70.30
29007;DHT22;16104;48.642;9.008;2023-05-10T06:53:02;16.20;70.10
29007;DHT22;16104;48.642;9.008;2023-05-10T06:57:58;16.20;69.90
29007;DHT22;16104;48.642;9.008;2023-05-10T07:02:53;16.20;69.80
29007;DHT22;16104;48.642;9.008;2023-05-10T07:07:49;16.30;70.00
29007;DHT22;16104;48.642;9.008;2023-05-10T07:12:44;16.40;69.90
29007;DHT22;16104;48.642;9.008;2023-05-10T07:17:40;16.40;69.70
29007;DHT22;16104;48.642;9.008;2023-05-10T07:22:35;16.50;69.30
29007;DHT22;16104;48.642;9.008;2023-05-10T07:27:31;16.60;69.00
29007;DHT22;16104;48.642;9.008;2023-05-10T07:32:26;16.60;68.80
29007;DHT22;16104;48.642;9.008;2023-05-10T07:37:22;16.60;68.20
29007;DHT22;16104;48.642;9.008;2023-05-10T07:42:18;16.80;68.10
29007;DHT22;16104;48.642;9.008;2023-05-10T07:47:13;16.80;67.60
29007;DHT22;16104;48.642;9.008;2023-05-10T07:52:09;16.90;67.20
29007;DHT22;16104;48.642;9.008;2023-05-10T07:57:04;16.90;66.80
29007;DHT22;16104;48.642;9.008;2023-05-10T08:02:00;17.00;66.70
29007;DHT22;16104;48.642;9.008;2023-05-10T08:06:55;17.00;66.70
29007;DHT22;16104;48.642;9.008;2023-05-10T08:11:51;17.10;66.60
29007;DHT22;16104;48.642;9.008;2023-05-10T08:16:46;17.10;66.10
29007;DHT22;16104;48.642;9.008;2023-05-10T08:21:42;17.20;65.60
29007;DHT22;16104;48.642;9.008;2023-05-10T08:26:37;17.30;65.10
29007;DHT22;16104;48.642;9.008;2023-05-10T08:31:33;17.30;64.90
29007;DHT22;16104;48.642;9.008;2023-05-10T08:36:28;17.30;64.60
29007;DHT22;16104;48.642;9.008;2023-05-10T08:41:25;17.40;64.30
29007;DHT22;16104;48.642;9.008;2023-05-10T08:46:23;17.40;64.00
29007;DHT22;16104;48.642;9.008;2023-05-10T08:51:22;17.50;63.60
29007;DHT22;16104;48.642;9.008;2023-05-10T08:56:19;17.60;63.40
29007;DHT22;16104;48.642;9.008;2023-05-10T09:01:16;17.70;63.30
29007;DHT22;16104;48.642;9.008;2023-05-10T09:06:12;17.70;62.80
29007;DHT22;16104;48.642;9.008;2023-05-10T09:11:09;17.70;62.30
29007;DHT22;16104;48.642;9.008;2023-05-10T09:16:06;17.70;63.00
29007;DHT22;16104;48.642;9.008;2023-05-10T09:21:02;17.80;62.40
29007;DHT22;16104;48.642;9.008;2023-05-10T09:26:04;17.90;61.90
29007;DHT22;16104;48.642;9.008;2023-05-10T09:31:00;17.90;61.40
29007;DHT22;16104;48.642;9.008;2023-05-10T09:36:06;18.00;61.70
29007;DHT22;16104;48.642;9.008;2023-05-10T09:41:02;18.10;60.70
29007;DHT22;16104;48.642;9.008;2023-05-10T09:45:58;18.20;61.00
29007;DHT22;16104;48.642;9.008;2023-05-10T09:50:57;18.30;61.30
29007;DHT22;16104;48.642;9.008;2023-05-10T09:55:53;18.40;60.00
29007;DHT22;16104;48.642;9.008;2023-05-10T10:00:49;18.50;59.50
29007;DHT22;16104;48.642;9.008;2023-05-10T10:05:48;18.50;59.30
29007;DHT22;16104;48.642;9.008;2023-05-10T10:10:43;18.60;59.00
29007;DHT22;16104;48.642;9.008;2023-05-10T10:15:42;18.70;59.80
29007;DHT22;16104;48.642;9.008;2023-05-10T10:20:38;18.80;59.70
29007;DHT22;16104;48.642;9.008;2023-05-10T10:25:33;18.90;59.50
29007;DHT22;16104;48.642;9.008;2023-05-10T10:30:50;19.10;58.30
29007;DHT22;16104;48.642;9.008;2023-05-10T10:35:46;19.20;56.50
29007;DHT22;16104;48.642;9.008;2023-05-10T10:40:42;19.30;57.10
29007;DHT22;16104;48.642;9.008;2023-05-10T10:45:39;19.40;56.60
29007;DHT22;16104;48.642;9.008;2023-05-10T10:50:44;19.30;55.20
29007;DHT22;16104;48.642;9.008;2023-05-10T10:55:47;19.10;55.20
29007;DHT22;16104;48.642;9.008;2023-05-10T11:00:43;18.80;55.00
29007;DHT22;16104;48.642;9.008;2023-05-10T11:05:48;18.50;55.30
29007;DHT22;16104;48.642;9.008;2023-05-10T11:15:48;18.00;55.90
29007;DHT22;16104;48.642;9.008;2023-05-10T11:20:59;17.80;56.60
29007;DHT22;16104;48.642;9.008;2023-05-10T11:25:55;17.70;56.80
29007;DHT22;16104;48.642;9.008;2023-05-10T11:30:51;17.60;57.60
29007;DHT22;16104;48.642;9.008;2023-05-10T11:35:47;17.50;58.00
29007;DHT22;16104;48.642;9.008;2023-05-10T11:40:43;17.60;58.50
29007;DHT22;16104;48.642;9.008;2023-05-10T11:45:41;17.70;58.70
29007;DHT22;16104;48.642;9.008;2023-05-10T11:50:37;17.80;58.60
29007;DHT22;16104;48.642;9.008;2023-05-10T11:55:33;17.90;58.40
29007;DHT22;16104;48.642;9.008;2023-05-10T12:00:29;18.00;58.20
29007;DHT22;16104;48.642;9.008;2023-05-10T12:05:25;18.20;57.90
29007;DHT22;16104;48.642;9.008;2023-05-10T12:10:25;18.30;57.70
29007;DHT22;16104;48.642;9.008;2023-05-10T12:15:23;18.40;56.70
29007;DHT22;16104;48.642;9.008;2023-05-10T12:20:21;18.40;56.10
29007;DHT22;16104;48.642;9.008;2023-05-10T12:25:18;18.40;55.80
29007;DHT22;16104;48.642;9.008;2023-05-10T12:30:19;18.30;55.70
29007;DHT22;16104;48.642;9.008;2023-05-10T12:35:16;18.30;55.80
29007;DHT22;16104;48.642;9.008;2023-05-10T12:40:12;18.30;56.20
29007;DHT22;16104;48.642;9.008;2023-05-10T12:45:08;18.30;56.10
29007;DHT22;16104;48.642;9.008;2023-05-10T12:50:04;18.40;55.60
29007;DHT22;16104;48.642;9.008;2023-05-10T12:55:00;18.50;55.70
29007;DHT22;16104;48.642;9.008;2023-05-10T12:59:56;18.60;55.40
29007;DHT22;16104;48.642;9.008;2023-05-10T13:04:52;18.70;54.90
29007;DHT22;16104;48.642;9.008;2023-05-10T13:09:48;18.70;54.80
29007;DHT22;16104;48.642;9.008;2023-05-10T13:14:43;18.70;55.20
29007;DHT22;16104;48.642;9.008;2023-05-10T13:19:39;18.80;54.60
29007;DHT22;16104;48.642;9.008;2023-05-10T13:24:34;18.90;54.10
29007;DHT22;16104;48.642;9.008;2023-05-10T13:29:30;19.00;53.50
29007;DHT22;16104;48.642;9.008;2023-05-10T13:34:26;19.00;53.40
29007;DHT22;16104;48.642;9.008;2023-05-10T13:39:22;19.10;53.20
29007;DHT22;16104;48.642;9.008;2023-05-10T13:44:17;19.10;53.30
29007;DHT22;16104;48.642;9.008;2023-05-10T13:49:13;19.20;53.20
29007;DHT22;16104;48.642;9.008;2023-05-10T13:54:09;19.30;52.70
29007;DHT22;16104;48.642;9.008;2023-05-10T13:59:04;19.30;52.50
29007;DHT22;16104;48.642;9.008;2023-05-10T14:04:00;19.30;52.50
29007;DHT22;16104;48.642;9.008;2023-05-10T14:08:55;19.30;52.40
29007;DHT22;16104;48.642;9.008;2023-05-10T14:13:51;19.40;52.50
29007;DHT22;16104;48.642;9.008;2023-05-10T14:18:47;19.40;52.30
29007;DHT22;16104;48.642;9.008;2023-05-10T14:23:42;19.50;52.50
29007;DHT22;16104;48.642;9.008;2023-05-10T14:28:38;19.60;52.60
29007;DHT22;16104;48.642;9.008;2023-05-10T14:33:33;19.60;52.90
29007;DHT22;16104;48.642;9.008;2023-05-10T14:38:29;19.70;52.10
29007;DHT22;16104;48.642;9.008;2023-05-10T14:43:24;19.70;51.60
29007;DHT22;16104;48.642;9.008;2023-05-10T14:48:20;19.80;51.00
29007;DHT22;16104;48.642;9.008;2023-05-10T14:53:16;19.80;50.70
29007;DHT22;16104;48.642;9.008;2023-05-10T14:58:12;19.80;51.20
29007;DHT22;16104;48.642;9.008;2023-05-10T15:03:07;19.80;50.50
29007;DHT22;16104;48.642;9.008;2023-05-10T15:08:03;19.80;49.70
29007;DHT22;16104;48.642;9.008;2023-05-10T15:13:00;19.80;50.00
29007;DHT22;16104;48.642;9.008;2023-05-10T15:17:55;19.80;49.40
29007;DHT22;16104;48.642;9.008;2023-05-10T15:22:51;19.80;49.60
29007;DHT22;16104;48.642;9.008;2023-05-10T15:27:46;19.70;49.60
29007;DHT22;16104;48.642;9.008;2023-05-10T15:32:42;19.70;49.40
29007;DHT22;16104;48.642;9.008;2023-05-10T15:37:38;19.70;49.30
29007;DHT22;16104;48.642;9.008;2023-05-10T15:42:33;19.70;49.60
29007;DHT22;16104;48.642;9.008;2023-05-10T15:47:29;19.70;49.40
29007;DHT22;16104;48.642;9.008;2023-05-10T15:52:25;19.70;50.30
29007;DHT22;16104;48.642;9.008;2023-05-10T15:57:20;19.70;50.20
29007;DHT22;16104;48.642;9.008;2023-05-10T16:02:16;19.80;50.10
29007;DHT22;16104;48.642;9.008;2023-05-10T16:07:13;19.90;50.00
29007;DHT22;16104;48.642;9.008;2023-05-10T16:12:08;19.90;49.80
29007;DHT22;16104;48.642;9.008;2023-05-10T16:17:04;19.90;49.40
29007;DHT22;16104;48.642;9.008;2023-05-10T16:22:00;19.90;49.30
29007;DHT22;16104;48.642;9.008;2023-05-10T16:26:55;19.90;49.10
29007;DHT22;16104;48.642;9.008;2023-05-10T16:31:51;19.90;49.50
29007;DHT22;16104;48.642;9.008;2023-05-10T16:36:46;19.80;49.50
29007;DHT22;16104;48.642;9.008;2023-05-10T16:41:42;19.70;50.10
29007;DHT22;16104;48.642;9.008;2023-05-10T16:46:39;19.50;50.50
29007;DHT22;16104;48.642;9.008;2023-05-10T16:51:35;19.40;51.00
29007;DHT22;16104;48.642;9.008;2023-05-10T16:56:30;19.20;51.30
29007;DHT22;16104;48.642;9.008;2023-05-10T17:01:26;19.00;51.60
29007;DHT22;16104;48.642;9.008;2023-05-10T17:06:21;18.80;51.60
29007;DHT22;16104;48.642;9.008;2023-05-10T17:11:16;18.70;51.80
29007;DHT22;16104;48.642;9.008;2023-05-10T17:16:14;18.60;52.30
29007;DHT22;16104;48.642;9.008;2023-05-10T17:21:09;18.50;52.50
29007;DHT22;16104;48.642;9.008;2023-05-10T17:26:05;18.40;52.90
29007;DHT22;16104;48.642;9.008;2023-05-10T17:31:01;18.30;53.60
29007;DHT22;16104;48.642;9.008;2023-05-10T17:35:57;18.20;54.20
29007;DHT22;16104;48.642;9.008;2023-05-10T17:40:52;18.10;53.70
29007;DHT22;16104;48.642;9.008;2023-05-10T17:45:48;18.10;53.70
29007;DHT22;16104;48.642;9.008;2023-05-10T17:50:44;17.90;53.90
29007;DHT22;16104;48.642;9.008;2023-05-10T17:55:40;17.80;54.20
29007;DHT22;16104;48.642;9.008;2023-05-10T18:00:36;17.60;54.50
29007;DHT22;16104;48.642;9.008;2023-05-10T18:05:36;17.50;54.80
29007;DHT22;16104;48.642;9.008;2023-05-10T18:10:32;17.50;55.50
29007;DHT22;16104;48.642;9.008;2023-05-10T18:15:28;17.40;55.50
29007;DHT22;16104;48.642;9.008;2023-05-10T18:20:24;17.30;55.90
29007;DHT22;16104;48.642;9.008;2023-05-10T18:25:20;17.20;56.30
29007;DHT22;16104;48.642;9.008;2023-05-10T18:30:15;17.10;56.40
29007;DHT22;16104;48.642;9.008;2023-05-10T18:35:11;17.00;56.50
29007;DHT22;16104;48.642;9.008;2023-05-10T18:40:07;16.90;56.60
29007;DHT22;16104;48.642;9.008;2023-05-10T18:45:09;16.90;57.00
29007;DHT22;16104;48.642;9.008;2023-05-10T18:50:05;16.80;57.00
29007;DHT22;16104;48.642;9.008;2023-05-10T18:55:00;16.80;57.10
29007;DHT22;16104;48.642;9.008;2023-05-10T18:59:56;16.70;57.20
29007;DHT22;16104;48.642;9.008;2023-05-10T19:04:51;16.70;57.30
29007;DHT22;16104;48.642;9.008;2023-05-10T19:09:47;16.60;58.00
29007;DHT22;16104;48.642;9.008;2023-05-10T19:14:42;16.50;57.30
29007;DHT22;16104;48.642;9.008;2023-05-10T19:19:38;16.50;57.40
29007;DHT22;16104;48.642;9.008;2023-05-10T19:24:33;16.50;57.60
29007;DHT22;16104;48.642;9.008;2023-05-10T19:29:29;16.40;57.80
29007;DHT22;16104;48.642;9.008;2023-05-10T19:34:25;16.30;57.80
29007;DHT22;16104;48.642;9.008;2023-05-10T19:39:20;16.20;58.00
29007;DHT22;16104;48.642;9.008;2023-05-10T19:44:16;16.20;58.10
29007;DHT22;16104;48.642;9.008;2023-05-10T19:49:12;16.10;58.10
29007;DHT22;16104;48.642;9.008;2023-05-10T19:54:07;16.00;58.20
29007;DHT22;16104;48.642;9.008;2023-05-10T19:59:03;16.00;58.40
29007;DHT22;16104;48.642;9.008;2023-05-10T20:03:58;15.90;58.50
29007;DHT22;16104;48.642;9.008;2023-05-10T20:08:54;15.90;58.60
29007;DHT22;16104;48.642;9.008;2023-05-10T20:13:50;15.80;58.80
29007;DHT22;16104;48.642;9.008;2023-05-10T20:18:45;15.80;59.00
29007;DHT22;16104;48.642;9.008;2023-05-10T20:23:41;15.80;59.20
29007;DHT22;16104;48.642;9.008;2023-05-10T20:28:37;15.70;59.30
29007;DHT22;16104;48.642;9.008;2023-05-10T20:33:32;15.70;59.40
29007;DHT22;16104;48.642;9.008;2023-05-10T20:38:28;15.60;59.50
29007;DHT22;16104;48.642;9.008;2023-05-10T20:43:23;15.60;59.70
29007;DHT22;16104;48.642;9.008;2023-05-10T20:48:19;15.60;59.90
29007;DHT22;16104;48.642;9.008;2023-05-10T20:53:15;15.50;60.70
29007;DHT22;16104;48.642;9.008;2023-05-10T20:58:12;15.50;60.10
29007;DHT22;16104;48.642;9.008;2023-05-10T21:03:08;15.50;60.20
29007;DHT22;16104;48.642;9.008;2023-05-10T21:08:03;15.40;60.10
29007;DHT22;16104;48.642;9.008;2023-05-10T21:12:59;15.40;60.20
29007;DHT22;16104;48.642;9.008;2023-05-10T21:17:54;15.30;60.30
29007;DHT22;16104;48.642;9.008;2023-05-10T21:22:50;15.30;60.40
29007;DHT22;16104;48.642;9.008;2023-05-10T21:27:45;15.20;60.50
29007;DHT22;16104;48.642;9.008;2023-05-10T21:32:41;15.20;60.50
29007;DHT22;16104;48.642;9.008;2023-05-10T21:37:37;15.10;60.50
29007;DHT22;16104;48.642;9.008;2023-05-10T21:42:32;15.10;60.60
29007;DHT22;16104;48.642;9.008;2023-05-10T21:47:28;15.10;60.70
29007;DHT22;16104;48.642;9.008;2023-05-10T21:52:24;15.10;60.70
29007;DHT22;16104;48.642;9.008;2023-05-10T21:57:19;15.00;60.80
29007;DHT22;16104;48.642;9.008;2023-05-10T22:02:15;15.00;60.70
29007;DHT22;16104;48.642;9.008;2023-05-10T22:07:11;15.00;60.80
29007;DHT22;16104;48.642;9.008;2023-05-10T22:12:06;14.90;60.70
29007;DHT22;16104;48.642;9.008;2023-05-10T22:17:02;14.90;60.70
29007;DHT22;16104;48.642;9.008;2023-05-10T22:21:58;14.90;60.70
29007;DHT22;16104;48.642;9.008;2023-05-10T22:26:54;14.90;60.80
29007;DHT22;16104;48.642;9.008;2023-05-10T22:31:50;14.80;60.90
29007;DHT22;16104;48.642;9.008;2023-05-10T22:36:46;14.80;60.90
29007;DHT22;16104;48.642;9.008;2023-05-10T22:41:43;14.80;60.90
29007;DHT22;16104;48.642;9.008;2023-05-10T22:46:38;14.70;61.00
29007;DHT22;16104;48.642;9.008;2023-05-10T22:51:34;14.70;61.30
29007;DHT22;16104;48.642;9.008;2023-05-10T22:56:30;14.60;61.50
29007;DHT22;16104;48.642;9.008;2023-05-10T23:01:25;14.60;61.70
29007;DHT22;16104;48.642;9.008;2023-05-10T23:06:21;14.60;61.80
29007;DHT22;16104;48.642;9.008;2023-05-10T23:11:16;14.60;62.00
29007;DHT22;16104;48.642;9.008;2023-05-10T23:16:12;14.50;62.00
29007;DHT22;16104;48.642;9.008;2023-05-10T23:21:07;14.50;62.10
29007;DHT22;16104;48.642;9.008;2023-05-10T23:26:03;14.50;62.10
29007;DHT22;16104;48.642;9.008;2023-05-10T23:30:59;14.40;62.30
29007;DHT22;16104;48.642;9.008;2023-05-10T23:35:54;14.40;62.40
29007;DHT22;16104;48.642;9.008;2023-05-10T23:40:50;14.40;62.50
29007;DHT22;16104;48.642;9.008;2023-05-10T23:45:56;14.30;62.80
29007;DHT22;16104;48.642;9.008;2023-05-10T23:50:52;14.30;63.20
29007;DHT22;16104;48.642;9.008;2023-05-10T23:55:47;14.30;63.00
